Time;durP1;ratioP1;P1;durP2;ratioP2;P2;SDS_P1;SDS_P2;PMS_P1;PMS_P2;Temp;Humidity;BMP_temperature;BMP_pressure;BME280_temperature;BME280_humidity;BME280_pressure;Samples;Min_cycle;Max_cycle;Signal;HPM_P1;HPM_P2
2023/03/11 00:01:16;;;;;;;14.73;7.50;;;3.50;99.90;;;;;;5030633;28;20460;-64
2023/03/11 00:03:48;;;;;;;11.37;7.47;;;3.50;99.90;;;;;;5017829;28;20473;-57
2023/03/11 00:06:17;;;;;;;11.80;6.60;;;3.50;99.90;;;;;;5016932;28;20449;-61
2023/03/11 00:08:44;;;;;;;11.40;7.90;;;3.40;99.90;;;;;;5016594;28;20458;-55
2023/03/11 00:11:11;;;;;;;11.17;6.73;;;3.40;99.90;;;;;;5016946;28;20453;-57
2023/03/11 00:13:40;;;;;;;9.03;5.43;;;3.30;99.90;;;;;;5017064;28;20477;-59
2023/03/11 00:16:07;;;;;;;11.47;7.27;;;3.30;99.90;;;;;;5025090;28;20465;-63
2023/03/11 00:18:34;;;;;;;9.60;5.90;;;3.20;99.90;;;;;;5025528;28;20436;-57
2023/03/11 00:21:01;;;;;;;10.20;5.33;;;3.20;99.90;;;;;;5026704;28;20482;-61
2023/03/11 00:23:28;;;;;;;10.90;5.97;;;3.10;99.90;;;;;;5029708;28;20491;-57
2023/03/11 00:25:55;;;;;;;13.00;6.20;;;3.00;99.90;;;;;;5031835;28;20437;-59
2023/03/11 00:28:24;;;;;;;7.90;5.80;;;3.00;99.90;;;;;;5023691;28;20461;-64
2023/03/11 00:30:53;;;;;;;9.20;5.57;;;2.90;99.90;;;;;;5021111;28;20450;-67
2023/03/11 00:33:20;;;;;;;10.23;6.33;;;2.90;99.90;;;;;;5025126;28;20479;-67
2023/03/11 00:35:47;;;;;;;9.90;6.77;;;2.90;99.90;;;;;;5021013;28;20472;-67
2023/03/11 00:38:15;;;;;;;9.20;5.27;;;2.80;99.90;;;;;;5023172;28;20465;-69
2023/03/11 00:40:43;;;;;;;10.73;4.43;;;2.80;99.90;;;;;;5026788;28;20468;-65
2023/03/11 00:43:10;;;;;;;10.07;5.70;;;2.80;99.90;;;;;;5018451;28;20524;-52
2023/03/11 00:45:37;;;;;;;11.13;4.83;;;2.60;99.90;;;;;;5012785;28;20508;-69
2023/03/11 00:48:08;;;;;;;5.03;3.97;;;2.60;99.90;;;;;;5013235;28;21241;-62
2023/03/11 00:50:36;;;;;;;5.83;3.93;;;3.50;99.90;;;;;;5011190;28;20474;-62
2023/03/11 00:53:05;;;;;;;8.90;5.20;;;2.60;99.90;;;;;;5013304;28;20527;-65
2023/03/11 00:55:34;;;;;;;5.87;3.83;;;2.50;99.90;;;;;;5017389;28;20499;-65
2023/03/11 00:58:03;;;;;;;5.87;3.80;;;2.50;99.90;;;;;;5030615;28;20444;-64
2023/03/11 01:00:31;;;;;;;7.83;5.53;;;2.40;99.90;;;;;;5031676;28;20457;-69
2023/03/11 01:02:59;;;;;;;6.83;4.93;;;2.30;99.90;;;;;;5015598;28;20486;-62
2023/03/11 01:05:29;;;;;;;8.60;4.10;;;2.20;99.90;;;;;;5011359;28;20470;-66
2023/03/11 01:07:56;;;;;;;7.97;5.47;;;2.20;99.90;;;;;;5026300;28;20472;-61
2023/03/11 01:10:24;;;;;;;8.13;3.97;;;2.20;99.90;;;;;;5036592;28;20445;-67
2023/03/11 01:12:53;;;;;;;8.93;4.80;;;2.20;99.90;;;;;;5037769;28;20457;-65
2023/03/11 01:15:22;;;;;;;9.27;6.03;;;2.30;99.90;;;;;;5033361;28;20452;-61
2023/03/11 01:17:49;;;;;;;9.90;6.53;;;2.30;99.90;;;;;;5031301;28;20496;-64
2023/03/11 01:20:16;;;;;;;9.27;5.40;;;2.20;99.90;;;;;;5031516;28;20444;-68
2023/03/11 01:22:44;;;;;;;11.87;5.43;;;2.20;99.90;;;;;;5028646;28;20483;-68
2023/03/11 01:25:14;;;;;;;8.43;4.60;;;2.20;99.90;;;;;;5031523;28;20522;-65
2023/03/11 01:27:42;;;;;;;9.60;5.83;;;2.20;99.90;;;;;;5031376;28;20445;-68
2023/03/11 01:30:12;;;;;;;10.10;6.00;;;2.20;99.90;;;;;;5020973;28;20442;-65
2023/03/11 01:32:40;;;;;;;9.67;6.43;;;2.20;99.90;;;;;;5013308;28;20435;-62
2023/03/11 01:35:12;;;;;;;12.93;5.93;;;2.10;99.90;;;;;;5011490;28;20449;-67
2023/03/11 01:37:39;;;;;;;9.97;6.13;;;2.10;99.90;;;;;;5011934;28;20523;-63
2023/03/11 01:40:14;;;;;;;9.73;5.73;;;2.10;99.90;;;;;;5013046;28;20454;-58
2023/03/11 01:42:40;;;;;;;9.73;4.97;;;2.10;99.90;;;;;;5018251;28;20465;-53
2023/03/11 01:45:31;;;;;;;9.30;5.73;;;2.10;99.90;;;;;;5020618;28;20414;-62
2023/03/11 01:47:57;;;;;;;11.70;6.53;;;2.00;99.90;;;;;;5038903;28;20437;-60
2023/03/11 01:50:27;;;;;;;5.00;3.30;;;2.00;99.90;;;;;;5038633;28;20500;-57
2023/03/11 01:52:54;;;;;;;5.33;4.10;;;2.00;99.90;;;;;;5038508;28;20453;-60
2023/03/11 01:55:22;;;;;;;8.37;5.00;;;2.00;99.90;;;;;;5038807;28;20469;-55
2023/03/11 01:57:51;;;;;;;7.83;3.30;;;1.90;99.90;;;;;;5037822;28;20480;-57
2023/03/11 02:00:19;;;;;;;6.57;3.40;;;1.90;99.90;;;;;;5026763;28;20442;-57
2023/03/11 02:02:50;;;;;;;9.60;4.13;;;2.00;99.90;;;;;;5018550;28;20477;-58
2023/03/11 02:05:19;;;;;;;5.00;3.20;;;2.00;99.90;;;;;;5018652;28;20442;-56
2023/03/11 02:07:49;;;;;;;1.60;1.43;;;1.90;99.90;;;;;;5018844;28;20481;-57
2023/03/11 02:10:17;;;;;;;4.57;3.00;;;1.90;99.90;;;;;;5019126;28;20482;-63
2023/03/11 02:12:46;;;;;;;3.23;1.93;;;1.90;99.90;;;;;;5028892;28;20444;-60
2023/03/11 02:15:13;;;;;;;2.67;1.40;;;1.90;99.90;;;;;;5027610;28;20445;-59
2023/03/11 02:17:42;;;;;;;2.07;1.43;;;1.90;99.90;;;;;;5028175;28;20468;-64
2023/03/11 02:20:19;;;;;;;2.50;1.77;;;1.90;99.90;;;;;;5016305;28;20501;-61
2023/03/11 02:22:47;;;;;;;1.43;0.90;;;1.90;99.90;;;;;;5023743;28;20446;-62
2023/03/11 02:25:22;;;;;;;1.70;1.10;;;1.90;99.90;;;;;;5015387;28;20442;-63
2023/03/11 02:27:53;;;;;;;2.33;1.47;;;1.80;99.90;;;;;;5013631;28;20429;-64
2023/03/11 02:30:21;;;;;;;1.67;1.23;;;1.80;99.90;;;;;;5017726;28;20433;-57
2023/03/11 02:32:49;;;;;;;1.03;0.93;;;1.80;99.90;;;;;;5027715;28;20465;-62
2023/03/11 02:35:16;;;;;;;1.50;1.20;;;1.80;99.90;;;;;;5019460;28;20477;-59
2023/03/11 02:37:50;;;;;;;1.60;1.50;;;1.80;99.90;;;;;;5029780;28;20587;-60
2023/03/11 02:40:41;;;;;;;2.60;1.40;;;1.80;99.90;;;;;;5038360;28;20460;-61
2023/03/11 02:43:12;;;;;;;2.00;1.27;;;1.80;99.90;;;;;;5034798;28;20488;-56
2023/03/11 02:45:40;;;;;;;3.20;1.57;;;1.80;99.90;;;;;;5031615;28;20476;-54
2023/03/11 02:48:10;;;;;;;0.90;0.80;;;1.80;99.90;;;;;;5024092;28;20437;-56
2023/03/11 02:50:37;;;;;;;1.50;1.27;;;1.70;99.90;;;;;;5018395;28;20446;-50
2023/03/11 02:53:04;;;;;;;2.50;1.73;;;1.70;99.90;;;;;;5021548;28;20465;-57
2023/03/11 02:55:31;;;;;;;5.90;1.97;;;1.70;99.90;;;;;;5035763;28;20445;-57
2023/03/11 02:58:01;;;;;;;1.30;1.13;;;1.70;99.90;;;;;;5031742;28;20476;-60
2023/03/11 03:00:30;;;;;;;2.90;1.40;;;1.70;99.90;;;;;;5026971;28;20476;-62
2023/03/11 03:02:56;;;;;;;1.20;1.07;;;1.70;99.90;;;;;;5026455;28;20451;-61
2023/03/11 03:05:24;;;;;;;2.20;1.27;;;1.70;99.90;;;;;;5036226;28;20452;-64
2023/03/11 03:07:51;;;;;;;2.53;1.37;;;1.70;99.90;;;;;;5026211;28;20476;-57
2023/03/11 03:10:22;;;;;;;1.60;1.40;;;2.00;99.90;;;;;;5021572;28;20493;-59
2023/03/11 03:12:49;;;;;;;1.77;1.43;;;1.80;99.90;;;;;;5028931;28;20452;-58
2023/03/11 03:15:16;;;;;;;2.17;1.50;;;1.80;99.90;;;;;;5019555;28;20441;-66
2023/03/11 03:17:45;;;;;;;1.30;0.90;;;1.90;99.90;;;;;;5032541;28;20456;-64
2023/03/11 03:20:13;;;;;;;1.53;1.20;;;1.90;99.90;;;;;;5023395;28;20472;-65
2023/03/11 03:22:41;;;;;;;1.77;1.47;;;1.90;99.90;;;;;;5018413;28;20465;-66
2023/03/11 03:25:09;;;;;;;2.53;2.00;;;1.90;99.90;;;;;;5025205;28;20492;-60
2023/03/11 03:27:37;;;;;;;1.93;1.50;;;1.80;99.90;;;;;;5033770;28;20456;-61
2023/03/11 03:30:05;;;;;;;2.10;1.70;;;1.80;99.90;;;;;;5033129;28;20517;-67
2023/03/11 03:32:32;;;;;;;2.00;1.50;;;1.80;99.90;;;;;;5033268;28;20437;-66
2023/03/11 03:35:01;;;;;;;3.60;1.70;;;1.90;99.90;;;;;;5031693;28;20503;-68
2023/03/11 03:37:29;;;;;;;2.33;1.70;;;1.90;99.90;;;;;;5030780;28;20496;-64
2023/03/11 03:39:57;;;;;;;0.90;0.80;;;1.90;99.90;;;;;;5031098;28;20511;-61
2023/03/11 03:42:24;;;;;;;4.17;2.10;;;1.90;99.90;;;;;;5032656;28;20473;-66
2023/03/11 03:44:52;;;;;;;2.03;1.30;;;1.80;99.90;;;;;;5025601;28;20492;-63
2023/03/11 03:47:19;;;;;;;3.23;1.97;;;1.80;99.90;;;;;;5015224;28;20457;-57
2023/03/11 03:49:46;;;;;;;2.13;1.60;;;1.80;99.90;;;;;;5015000;28;20446;-60
2023/03/11 03:52:14;;;;;;;2.97;1.53;;;1.80;99.90;;;;;;5013763;28;20446;-62
2023/03/11 03:54:41;;;;;;;1.97;1.83;;;1.70;99.90;;;;;;5012299;28;20441;-61
2023/03/11 03:57:09;;;;;;;1.97;1.77;;;1.80;99.90;;;;;;5011635;28;20449;-62
2023/03/11 03:59:38;;;;;;;7.20;2.40;;;1.80;99.90;;;;;;5011138;28;20481;-64
2023/03/11 04:02:04;;;;;;;2.13;1.50;;;1.70;99.90;;;;;;5011267;28;20509;-66
2023/03/11 04:04:32;;;;;;;2.53;1.47;;;1.80;99.90;;;;;;5012883;28;20494;-57
2023/03/11 04:06:59;;;;;;;3.90;2.27;;;1.80;99.90;;;;;;5013066;28;20529;-67
2023/03/11 04:09:27;;;;;;;1.63;1.50;;;1.70;99.90;;;;;;5011805;28;20517;-66
2023/03/11 04:11:54;;;;;;;2.30;2.10;;;1.70;99.90;;;;;;5012461;28;20484;-60
2023/03/11 04:14:24;;;;;;;3.80;2.20;;;1.80;99.90;;;;;;5011622;28;20492;-66
2023/03/11 04:16:51;;;;;;;2.00;1.40;;;1.80;99.90;;;;;;5028169;28;20461;-63
2023/03/11 04:19:18;;;;;;;2.43;1.60;;;1.80;99.90;;;;;;5032256;28;20458;-65
2023/03/11 04:21:45;;;;;;;1.80;1.60;;;1.80;99.90;;;;;;5035034;28;20473;-61
2023/03/11 04:24:11;;;;;;;2.27;1.70;;;1.70;99.90;;;;;;5035765;28;20521;-61
2023/03/11 04:26:40;;;;;;;1.43;1.33;;;1.70;99.90;;;;;;5035750;28;20445;-63
2023/03/11 04:29:08;;;;;;;3.10;2.37;;;1.70;99.90;;;;;;5036068;28;20425;-61
2023/03/11 04:31:35;;;;;;;3.93;2.23;;;1.70;99.90;;;;;;5035436;28;20460;-60
2023/03/11 04:34:02;;;;;;;2.20;1.43;;;1.70;99.90;;;;;;5035381;28;20460;-61
2023/03/11 04:36:29;;;;;;;3.37;1.50;;;1.80;99.90;;;;;;5019790;28;21034;-61
2023/03/11 04:38:57;;;;;;;3.37;1.93;;;1.80;99.90;;;;;;5015618;28;20430;-61
2023/03/11 04:41:24;;;;;;;3.30;1.50;;;1.80;99.90;;;;;;5016193;28;20446;-62
2023/03/11 04:43:52;;;;;;;2.70;2.17;;;1.80;99.90;;;;;;5016398;28;20497;-63
2023/03/11 04:46:19;;;;;;;3.40;2.10;;;1.90;99.90;;;;;;5028132;28;20448;-61
2023/03/11 04:48:46;;;;;;;1.70;1.33;;;1.80;99.90;;;;;;5036246;28;20468;-58
2023/03/11 04:51:18;;;;;;;2.73;1.73;;;1.80;99.90;;;;;;5036164;28;20457;-53
2023/03/11 04:53:48;;;;;;;6.03;2.63;;;1.80;99.90;;;;;;5036330;28;20409;-61
2023/03/11 04:56:15;;;;;;;3.47;1.77;;;1.80;99.90;;;;;;5036197;28;20471;-60
2023/03/11 04:58:42;;;;;;;3.23;2.13;;;1.80;99.90;;;;;;5036578;28;20473;-52
2023/03/11 05:01:10;;;;;;;3.00;1.57;;;1.80;99.90;;;;;;5035637;28;20456;-58
2023/03/11 05:03:37;;;;;;;2.10;1.63;;;1.80;99.90;;;;;;5036001;28;20457;-58
2023/03/11 05:06:04;;;;;;;2.70;1.70;;;1.70;99.90;;;;;;5036216;28;20429;-50
2023/03/11 05:08:31;;;;;;;2.13;1.20;;;1.70;99.90;;;;;;5036567;28;20433;-53
2023/03/11 05:10:58;;;;;;;2.23;2.03;;;1.70;99.90;;;;;;5038703;28;20463;-56
2023/03/11 05:13:25;;;;;;;3.90;1.53;;;1.60;99.90;;;;;;5039761;28;20488;-59
2023/03/11 05:15:57;;;;;;;2.10;1.47;;;1.70;99.90;;;;;;5031763;28;20454;-58
2023/03/11 05:18:25;;;;;;;10.83;1.80;;;1.70;99.90;;;;;;5019787;28;20462;-62
2023/03/11 05:20:53;;;;;;;2.10;1.60;;;1.70;99.90;;;;;;5019838;28;20461;-63
2023/03/11 05:23:20;;;;;;;1.57;1.13;;;1.80;99.90;;;;;;5019802;28;20472;-58
2023/03/11 05:25:48;;;;;;;3.63;1.60;;;1.80;99.90;;;;;;5016418;28;20489;-59
2023/03/11 05:28:15;;;;;;;3.17;2.50;;;1.70;99.90;;;;;;5026009;28;20452;-67
2023/03/11 05:30:42;;;;;;;3.17;1.87;;;1.80;99.90;;;;;;5035043;28;20437;-64
2023/03/11 05:33:09;;;;;;;1.30;1.20;;;1.80;99.90;;;;;;5034181;28;20492;-68
2023/03/11 05:35:37;;;;;;;2.27;1.87;;;1.90;99.90;;;;;;5033993;28;20437;-58
2023/03/11 05:38:04;;;;;;;1.33;0.93;;;1.90;99.90;;;;;;5035357;28;20465;-66
2023/03/11 05:40:30;;;;;;;2.03;1.30;;;1.90;99.90;;;;;;5025142;28;20457;-61
2023/03/11 05:42:57;;;;;;;2.10;1.50;;;1.90;99.90;;;;;;5023767;28;20457;-66
2023/03/11 05:45:25;;;;;;;2.27;1.67;;;1.90;99.90;;;;;;5025905;28;20548;-64
2023/03/11 05:47:52;;;;;;;1.67;1.20;;;1.90;99.90;;;;;;5030765;28;20445;-62
2023/03/11 05:50:19;;;;;;;2.00;1.50;;;1.90;99.90;;;;;;5032846;28;20469;-66
2023/03/11 05:52:47;;;;;;;2.63;1.70;;;2.00;99.90;;;;;;5033348;28;20445;-64
2023/03/11 05:55:14;;;;;;;1.90;1.60;;;1.90;99.90;;;;;;5036793;28;20460;-65
2023/03/11 05:57:41;;;;;;;3.03;1.90;;;1.90;99.90;;;;;;5036803;28;20476;-66
2023/03/11 06:00:11;;;;;;;3.30;1.97;;;2.00;99.90;;;;;;5032215;28;20509;-60
2023/03/11 06:02:39;;;;;;;2.40;1.73;;;2.00;99.90;;;;;;5032510;28;20553;-64
2023/03/11 06:05:07;;;;;;;2.90;1.50;;;2.00;99.90;;;;;;5037573;28;20461;-60
2023/03/11 06:07:34;;;;;;;3.27;1.70;;;2.00;99.90;;;;;;5037638;28;20461;-68
2023/03/11 06:10:03;;;;;;;2.90;2.27;;;2.00;99.90;;;;;;5031780;28;20493;-56
2023/03/11 06:12:30;;;;;;;2.50;1.77;;;2.00;99.90;;;;;;5039366;28;20425;-60
2023/03/11 06:14:57;;;;;;;2.80;1.50;;;2.00;99.90;;;;;;5036009;28;20468;-60
2023/03/11 06:17:24;;;;;;;2.20;1.77;;;2.00;99.90;;;;;;5032793;28;20441;-64
2023/03/11 06:19:51;;;;;;;4.73;2.37;;;2.10;99.90;;;;;;5034981;28;20461;-67
2023/03/11 06:22:18;;;;;;;4.50;1.87;;;2.00;99.90;;;;;;5033889;28;20480;-66
2023/03/11 06:24:44;;;;;;;3.40;1.90;;;2.00;99.90;;;;;;5035038;28;20553;-67
2023/03/11 06:27:13;;;;;;;2.40;2.13;;;1.90;99.90;;;;;;5033587;28;20452;-60
2023/03/11 06:29:39;;;;;;;3.23;2.03;;;1.90;99.90;;;;;;5034850;28;20437;-67
2023/03/11 06:32:07;;;;;;;3.63;3.33;;;1.90;99.90;;;;;;5034133;28;20428;-63
2023/03/11 06:34:33;;;;;;;3.87;2.57;;;1.90;99.90;;;;;;5033911;28;20472;-63
2023/03/11 06:37:00;;;;;;;4.10;2.10;;;2.00;99.90;;;;;;5033456;28;20481;-64
2023/03/11 06:39:27;;;;;;;2.60;1.70;;;2.00;99.90;;;;;;5032678;28;20476;-67
2023/03/11 06:41:54;;;;;;;2.03;1.83;;;2.00;99.90;;;;;;5033108;28;20485;-64
2023/03/11 06:44:22;;;;;;;1.27;0.90;;;2.10;99.90;;;;;;5032867;28;20515;-67
2023/03/11 06:46:49;;;;;;;3.40;2.10;;;2.10;99.90;;;;;;5034736;28;20461;-65
2023/03/11 06:49:16;;;;;;;6.13;2.73;;;2.10;99.90;;;;;;5034835;28;20460;-61
2023/03/11 06:51:43;;;;;;;2.30;2.03;;;2.10;99.90;;;;;;5034660;28;20437;-65
2023/03/11 06:54:11;;;;;;;7.57;2.73;;;2.10;99.90;;;;;;5034137;28;20441;-64
2023/03/11 06:56:38;;;;;;;3.40;2.67;;;2.00;99.90;;;;;;5032939;28;20447;-65
2023/03/11 06:59:04;;;;;;;4.63;2.77;;;2.00;99.90;;;;;;5032964;28;20469;-62
2023/03/11 07:01:33;;;;;;;3.03;2.00;;;2.00;99.90;;;;;;5033465;28;20484;-64
2023/03/11 07:04:02;;;;;;;6.73;2.70;;;2.00;99.90;;;;;;5033194;28;20529;-63
2023/03/11 07:06:29;;;;;;;2.00;1.27;;;2.00;99.90;;;;;;5032698;28;20437;-64
2023/03/11 07:08:57;;;;;;;6.10;3.83;;;2.00;99.90;;;;;;5034842;28;20456;-68
2023/03/11 07:11:26;;;;;;;7.27;2.47;;;2.00;99.90;;;;;;5033863;28;20469;-66
2023/03/11 07:13:54;;;;;;;4.37;2.40;;;2.10;99.90;;;;;;5033227;28;20465;-65
2023/03/11 07:16:22;;;;;;;3.90;2.87;;;2.10;99.90;;;;;;5034253;28;20437;-65
2023/03/11 07:18:52;;;;;;;2.90;2.33;;;2.10;99.90;;;;;;5033988;28;20461;-65
2023/03/11 07:21:20;;;;;;;3.53;1.67;;;2.00;99.90;;;;;;5033624;28;20441;-67
2023/03/11 07:23:48;;;;;;;2.23;1.63;;;2.10;99.90;;;;;;5034948;28;20475;-69
2023/03/11 07:26:16;;;;;;;3.03;2.47;;;2.10;99.90;;;;;;5034676;28;20516;-66
2023/03/11 07:28:44;;;;;;;3.07;2.47;;;2.10;99.90;;;;;;5032557;28;20505;-62
2023/03/11 07:31:13;;;;;;;4.80;3.33;;;2.10;99.90;;;;;;5031700;28;20445;-68
2023/03/11 07:33:40;;;;;;;2.47;1.80;;;1.60;99.90;;;;;;5031604;28;20495;-67
2023/03/11 07:36:10;;;;;;;5.23;3.37;;;2.10;99.90;;;;;;5033418;28;20472;-68
2023/03/11 07:38:37;;;;;;;6.63;3.50;;;2.00;99.90;;;;;;5032052;28;20429;-66
2023/03/11 07:41:04;;;;;;;4.93;2.40;;;2.10;99.90;;;;;;5031037;28;20441;-65
2023/03/11 07:43:32;;;;;;;3.33;2.20;;;2.10;99.90;;;;;;5034087;28;20465;-65
2023/03/11 07:46:07;;;;;;;4.10;3.33;;;2.20;99.90;;;;;;5033763;28;20485;-66
2023/03/11 07:48:35;;;;;;;3.17;2.90;;;2.30;99.90;;;;;;5033214;28;20468;-66
2023/03/11 07:51:04;;;;;;;4.70;2.43;;;2.40;99.90;;;;;;5033547;28;20496;-64
2023/03/11 07:53:32;;;;;;;3.10;2.30;;;2.40;99.90;;;;;;5032126;28;20445;-64
2023/03/11 07:56:00;;;;;;;4.47;2.30;;;2.50;99.90;;;;;;5031477;28;20734;-65
2023/03/11 07:58:28;;;;;;;3.60;2.23;;;2.60;99.90;;;;;;5029924;28;20476;-67
2023/03/11 08:00:55;;;;;;;3.30;2.80;;;2.60;99.90;;;;;;5035093;28;20476;-60
2023/03/11 08:03:25;;;;;;;3.30;1.93;;;2.60;99.90;;;;;;5035370;28;20467;-66
2023/03/11 08:05:52;;;;;;;1.53;1.43;;;2.60;99.90;;;;;;5032041;28;20493;-63
2023/03/11 08:08:19;;;;;;;3.17;2.17;;;2.60;99.90;;;;;;5031584;28;20441;-67
2023/03/11 08:10:54;;;;;;;3.70;2.93;;;2.60;99.90;;;;;;5029494;28;20452;-66
2023/03/11 08:13:21;;;;;;;6.93;3.53;;;2.70;99.90;;;;;;5030609;28;20448;-67
2023/03/11 08:15:48;;;;;;;3.70;2.60;;;2.70;99.90;;;;;;5032606;28;20468;-64
2023/03/11 08:18:15;;;;;;;2.80;2.60;;;2.70;99.90;;;;;;5032426;28;20448;-59
2023/03/11 08:20:44;;;;;;;4.03;3.00;;;2.70;99.90;;;;;;5036030;28;20429;-54
2023/03/11 08:23:10;;;;;;;5.33;2.80;;;2.80;99.90;;;;;;5033746;28;20507;-68
2023/03/11 08:25:39;;;;;;;6.50;2.87;;;2.80;99.90;;;;;;5029009;28;20512;-67
2023/03/11 08:28:07;;;;;;;4.87;2.60;;;2.90;99.90;;;;;;5029532;28;20457;-63
2023/03/11 08:30:35;;;;;;;5.30;2.80;;;2.90;99.90;;;;;;5030327;28;20863;-67
2023/03/11 08:33:02;;;;;;;3.47;2.27;;;2.90;99.90;;;;;;5028886;28;20484;-60
2023/03/11 08:35:29;;;;;;;3.30;2.43;;;2.90;99.90;;;;;;5029324;28;20505;-62
2023/03/11 08:37:56;;;;;;;11.40;3.20;;;2.90;99.90;;;;;;5032172;28;20469;-59
2023/03/11 08:40:25;;;;;;;7.13;3.13;;;3.00;99.90;;;;;;5037733;28;20456;-54
2023/03/11 08:42:52;;;;;;;5.63;3.33;;;3.20;99.90;;;;;;5037663;28;20494;-60
2023/03/11 08:45:20;;;;;;;5.53;2.13;;;3.30;99.90;;;;;;5038533;28;20488;-61
2023/03/11 08:47:47;;;;;;;4.10;2.33;;;3.30;99.90;;;;;;5032483;28;20445;-67
2023/03/11 08:50:16;;;;;;;3.40;2.40;;;3.40;99.90;;;;;;5031244;28;20445;-63
2023/03/11 08:52:43;;;;;;;4.30;2.67;;;3.30;99.90;;;;;;5033227;28;20491;-66
2023/03/11 08:55:13;;;;;;;7.03;2.57;;;3.20;99.90;;;;;;5032399;28;20445;-61
2023/03/11 08:57:41;;;;;;;5.00;3.67;;;3.20;99.90;;;;;;5029751;28;20555;-67
2023/03/11 09:00:10;;;;;;;3.90;2.80;;;3.60;99.90;;;;;;5028732;28;20894;-64
2023/03/11 09:02:38;;;;;;;3.67;2.80;;;3.60;99.90;;;;;;5029978;28;20977;-64
2023/03/11 09:05:06;;;;;;;3.07;2.87;;;3.60;99.90;;;;;;5031344;28;20567;-68
2023/03/11 09:07:33;;;;;;;6.10;3.17;;;3.50;99.90;;;;;;5029615;28;20480;-67
2023/03/11 09:10:00;;;;;;;3.80;2.27;;;3.50;99.90;;;;;;5030470;28;20468;-67
2023/03/11 09:12:27;;;;;;;3.37;2.30;;;3.70;99.90;;;;;;5032044;28;20473;-66
2023/03/11 09:14:55;;;;;;;4.70;3.70;;;3.70;99.90;;;;;;5031754;28;20444;-65
2023/03/11 09:17:22;;;;;;;3.23;2.93;;;3.70;99.90;;;;;;5029716;28;20476;-65
2023/03/11 09:19:57;;;;;;;4.57;2.70;;;3.70;99.90;;;;;;5029910;28;20444;-66
2023/03/11 09:22:24;;;;;;;6.00;2.90;;;3.70;99.90;;;;;;5030350;28;20490;-65
2023/03/11 09:24:51;;;;;;;8.40;3.47;;;3.70;99.90;;;;;;5035358;28;20452;-63
2023/03/11 09:27:18;;;;;;;5.27;3.13;;;3.60;99.90;;;;;;5040388;28;20441;-60
2023/03/11 09:29:46;;;;;;;3.30;2.80;;;3.50;99.90;;;;;;5040600;28;20441;-57
2023/03/11 09:32:13;;;;;;;4.00;2.90;;;3.60;99.90;;;;;;5040585;28;20429;-61
2023/03/11 09:34:40;;;;;;;4.57;3.30;;;3.70;99.90;;;;;;5035301;28;20465;-64
2023/03/11 09:37:09;;;;;;;6.90;3.60;;;3.80;99.90;;;;;;5030401;28;20502;-67
2023/03/11 09:39:36;;;;;;;9.00;3.50;;;3.80;99.90;;;;;;5030835;28;20475;-66
2023/03/11 09:42:13;;;;;;;4.57;3.30;;;3.80;99.90;;;;;;5030455;28;20475;-63
2023/03/11 09:44:43;;;;;;;2.57;1.80;;;3.80;99.90;;;;;;5029038;28;20560;-65
2023/03/11 09:47:30;;;;;;;1.97;1.73;;;3.80;99.90;;;;;;5032383;28;20524;-60
2023/03/11 09:50:17;;;;;;;3.20;2.87;;;3.80;99.90;;;;;;5039534;28;20433;-58
2023/03/11 09:52:58;;;;;;;3.00;2.67;;;3.70;99.90;;;;;;5029212;28;20472;-64
2023/03/11 09:55:38;;;;;;;2.57;2.37;;;3.50;99.90;;;;;;5038632;28;20437;-64
2023/03/11 09:58:15;;;;;;;3.83;2.87;;;3.40;99.90;;;;;;5035612;28;20425;-66
2023/03/11 10:00:43;;;;;;;2.57;2.20;;;3.30;99.90;;;;;;5031345;28;20456;-61
2023/03/11 10:03:23;;;;;;;6.50;2.47;;;3.30;99.90;;;;;;5035558;28;20428;-64
2023/03/11 10:05:52;;;;;;;4.77;2.60;;;3.30;99.90;;;;;;5035535;28;20526;-57
2023/03/11 10:08:32;;;;;;;6.00;3.10;;;3.30;99.90;;;;;;5033740;28;20453;-66
2023/03/11 10:11:07;;;;;;;7.60;4.00;;;3.40;99.90;;;;;;5032083;28;20429;-65
2023/03/11 10:13:41;;;;;;;2.37;2.00;;;3.60;99.90;;;;;;5030569;28;20463;-68
2023/03/11 10:16:18;;;;;;;6.43;2.87;;;3.50;99.90;;;;;;5030078;28;20429;-68
2023/03/11 10:18:53;;;;;;;5.80;3.23;;;3.60;99.90;;;;;;5028772;28;20504;-65
2023/03/11 10:21:34;;;;;;;2.50;2.30;;;3.60;99.90;;;;;;5031223;28;20433;-62
2023/03/11 10:24:14;;;;;;;5.67;3.40;;;4.00;99.90;;;;;;5032412;28;20461;-64
2023/03/11 10:26:44;;;;;;;5.37;3.60;;;3.60;99.90;;;;;;5029375;28;20500;-62
2023/03/11 10:29:20;;;;;;;6.43;3.50;;;3.90;99.90;;;;;;5028535;28;20425;-68
2023/03/11 10:31:58;;;;;;;6.17;3.37;;;3.90;99.90;;;;;;5024713;28;20487;-63
2023/03/11 10:34:32;;;;;;;7.40;3.80;;;4.40;99.90;;;;;;5039409;28;20440;-66
2023/03/11 10:37:03;;;;;;;5.50;3.73;;;4.90;99.90;;;;;;5034351;28;20465;-61
2023/03/11 10:39:34;;;;;;;5.33;3.67;;;5.10;99.90;;;;;;5037399;28;20461;-65
2023/03/11 10:42:03;;;;;;;3.50;3.10;;;4.90;99.90;;;;;;5036177;28;20441;-60
2023/03/11 10:44:34;;;;;;;11.90;4.70;;;4.60;99.90;;;;;;5030847;28;20509;-65
2023/03/11 10:47:01;;;;;;;4.20;3.20;;;4.60;99.90;;;;;;5027955;28;20489;-66
2023/03/11 10:49:29;;;;;;;5.63;3.60;;;4.60;99.90;;;;;;5028752;28;20473;-64
2023/03/11 10:51:57;;;;;;;6.13;2.80;;;4.30;99.90;;;;;;5028557;28;20452;-66
2023/03/11 10:54:27;;;;;;;4.33;3.10;;;4.20;99.90;;;;;;5028783;28;20473;-66
2023/03/11 10:56:58;;;;;;;7.00;4.67;;;4.10;99.90;;;;;;5029029;28;20437;-68
2023/03/11 10:59:29;;;;;;;3.47;2.50;;;4.30;99.90;;;;;;5034425;28;20460;-60
2023/03/11 11:01:58;;;;;;;4.23;3.83;;;4.50;99.90;;;;;;5037170;28;20499;-60
2023/03/11 11:04:33;;;;;;;3.23;2.63;;;4.40;99.90;;;;;;5036169;28;20449;-66
2023/03/11 11:07:21;;;;;;;3.73;3.27;;;4.40;99.90;;;;;;5036801;28;20468;-61
2023/03/11 11:09:48;;;;;;;2.70;2.10;;;4.30;99.90;;;;;;5037070;28;20437;-55
2023/03/11 11:12:20;;;;;;;6.10;4.13;;;4.10;99.90;;;;;;5036617;28;20503;-56
2023/03/11 11:14:51;;;;;;;6.20;4.07;;;3.90;99.90;;;;;;5037534;28;20429;-61
2023/03/11 11:17:26;;;;;;;6.07;3.00;;;3.50;99.90;;;;;;5035636;28;20461;-61
2023/03/11 11:19:55;;;;;;;6.30;4.10;;;3.40;99.90;;;;;;5036339;28;20444;-62
2023/03/11 11:22:24;;;;;;;5.77;3.70;;;3.50;99.90;;;;;;5036906;28;20445;-57
2023/03/11 11:24:52;;;;;;;8.27;4.97;;;3.40;99.90;;;;;;5035380;28;20447;-64
2023/03/11 11:27:26;;;;;;;3.10;2.80;;;3.50;99.90;;;;;;5035629;28;20477;-63
2023/03/11 11:30:15;;;;;;;3.20;2.37;;;3.40;99.90;;;;;;5036276;28;20454;-53
2023/03/11 11:32:42;;;;;;;5.30;3.73;;;3.50;99.90;;;;;;5037050;28;20437;-57
2023/03/11 11:35:12;;;;;;;8.23;4.70;;;3.40;99.90;;;;;;5036720;28;20498;-64
2023/03/11 11:37:42;;;;;;;7.13;4.80;;;3.30;99.90;;;;;;5037692;28;20436;-58
2023/03/11 11:40:23;;;;;;;7.67;4.60;;;3.20;99.90;;;;;;5037868;28;20465;-63
2023/03/11 11:42:55;;;;;;;3.30;2.70;;;3.30;99.90;;;;;;5037976;28;20463;-57
2023/03/11 11:45:30;;;;;;;3.47;3.13;;;3.30;99.90;;;;;;5038060;28;20421;-63
2023/03/11 11:48:01;;;;;;;7.70;4.90;;;3.40;99.90;;;;;;5037314;28;20401;-61
2023/03/11 11:50:34;;;;;;;13.90;4.60;;;3.50;99.90;;;;;;5038057;28;20461;-59
2023/03/11 11:53:10;;;;;;;4.63;3.73;;;3.70;99.90;;;;;;5036558;28;20432;-57
2023/03/11 11:55:41;;;;;;;5.23;3.90;;;3.90;99.90;;;;;;5037869;28;20460;-62
2023/03/11 11:58:11;;;;;;;6.50;3.67;;;4.00;99.90;;;;;;5037021;28;20484;-64
2023/03/11 12:00:44;;;;;;;11.93;5.50;;;4.10;99.90;;;;;;5036613;28;20460;-54
2023/03/11 12:03:53;;;;;;;7.40;5.03;;;4.10;99.90;;;;;;5037493;28;20469;-63
2023/03/11 12:06:27;;;;;;;9.87;5.70;;;4.30;99.90;;;;;;4996464;28;20541;-65
2023/03/11 12:09:04;;;;;;;6.10;3.30;;;4.50;99.90;;;;;;5025437;28;20488;-66
2023/03/11 12:11:37;;;;;;;5.57;3.67;;;4.50;99.90;;;;;;5027696;28;20436;-67
2023/03/11 12:14:12;;;;;;;5.57;4.70;;;4.40;99.90;;;;;;5026756;28;20777;-62
2023/03/11 12:16:43;;;;;;;9.07;4.73;;;4.40;99.90;;;;;;5027379;28;20524;-64
2023/03/11 12:19:30;;;;;;;5.93;4.50;;;4.30;99.90;;;;;;5026282;28;20421;-69
2023/03/11 12:22:25;;;;;;;5.37;4.10;;;4.40;99.90;;;;;;5022602;28;20445;-67
2023/03/11 12:25:05;;;;;;;4.60;3.33;;;4.50;99.90;;;;;;5027349;28;20429;-62
2023/03/11 12:27:34;;;;;;;10.50;6.23;;;4.40;99.90;;;;;;5026840;28;20501;-62
2023/03/11 12:30:06;;;;;;;5.03;4.20;;;4.30;99.90;;;;;;5025563;28;20453;-68
2023/03/11 12:32:36;;;;;;;8.17;5.60;;;4.30;99.90;;;;;;5024878;28;20564;-63
2023/03/11 12:35:10;;;;;;;7.33;4.83;;;4.30;99.90;;;;;;5024706;28;20452;-67
2023/03/11 12:37:37;;;;;;;6.70;5.13;;;4.10;99.90;;;;;;5027286;28;20460;-65
2023/03/11 12:40:38;;;;;;;5.93;2.80;;;4.00;99.90;;;;;;5028959;28;20448;-66
2023/03/11 12:43:04;;;;;;;4.30;3.13;;;3.60;99.90;;;;;;5036537;28;20890;-61
2023/03/11 12:45:49;;;;;;;10.07;4.50;;;3.40;99.90;;;;;;5036728;28;20417;-69
2023/03/11 12:48:34;;;;;;;5.23;3.80;;;3.40;99.90;;;;;;5029136;28;20469;-66
2023/03/11 12:51:01;;;;;;;8.90;4.00;;;3.40;99.90;;;;;;5033559;28;20460;-64
2023/03/11 12:53:56;;;;;;;5.33;4.27;;;3.30;99.90;;;;;;5036894;28;20445;-56
2023/03/11 12:56:33;;;;;;;5.63;3.47;;;3.80;99.90;;;;;;5014685;28;20477;-65
2023/03/11 12:59:14;;;;;;;8.43;4.10;;;3.40;99.90;;;;;;5028201;28;20421;-61
2023/03/11 13:02:05;;;;;;;5.00;3.27;;;3.50;99.90;;;;;;5026800;28;20488;-67
2023/03/11 13:04:41;;;;;;;5.80;4.70;;;3.60;99.90;;;;;;5027045;28;20440;-68
2023/03/11 13:07:37;;;;;;;9.20;4.10;;;3.60;99.90;;;;;;5028739;28;20499;-67
2023/03/11 13:10:13;;;;;;;4.67;2.73;;;3.60;99.90;;;;;;5029481;28;20461;-63